sensor_id;sensor_type;location;lat;lon;timestamp;P1;durP1;ratioP1;P2;durP2;ratioP2
75021;SDS011;63583;49.976;20.182;2024-03-08T00:00:12;26.58;;;12.88;;
75021;SDS011;63583;49.976;20.182;2024-03-08T00:02:58;28.35;;;13.98;;
75021;SDS011;63583;49.976;20.182;2024-03-08T00:05:26;24.63;;;12.38;;
75021;SDS011;63583;49.976;20.182;2024-03-08T00:07:52;28.75;;;12.88;;
75021;SDS011;63583;49.976;20.182;2024-03-08T00:10:18;27.25;;;13.32;;
75021;SDS011;63583;49.976;20.182;2024-03-08T00:12:46;25.63;;;12.98;;
75021;SDS011;63583;49.976;20.182;2024-03-08T00:15:13;27.85;;;13.65;;
75021;SDS011;63583;49.976;20.182;2024-03-08T00:17:40;29.42;;;14.38;;
75021;SDS011;63583;49.976;20.182;2024-03-08T00:20:07;28.10;;;13.10;;
75021;SDS011;63583;49.976;20.182;2024-03-08T00:25:03;27.70;;;12.13;;
75021;SDS011;63583;49.976;20.182;2024-03-08T00:27:35;28.73;;;13.40;;
75021;SDS011;63583;49.976;20.182;2024-03-08T00:30:04;26.20;;;12.38;;
75021;SDS011;63583;49.976;20.182;2024-03-08T00:32:33;29.40;;;12.75;;
75021;SDS011;63583;49.976;20.182;2024-03-08T00:34:59;24.70;;;13.57;;
75021;SDS011;63583;49.976;20.182;2024-03-08T00:37:25;28.10;;;13.05;;
75021;SDS011;63583;49.976;20.182;2024-03-08T00:39:51;29.10;;;14.30;;
75021;SDS011;63583;49.976;20.182;2024-03-08T00:42:18;24.58;;;12.93;;
75021;SDS011;63583;49.976;20.182;2024-03-08T00:44:44;29.95;;;13.63;;
75021;SDS011;63583;49.976;20.182;2024-03-08T00:47:10;25.33;;;11.95;;
75021;SDS011;63583;49.976;20.182;2024-03-08T00:49:36;26.25;;;12.63;;
75021;SDS011;63583;49.976;20.182;2024-03-08T00:52:06;28.30;;;13.52;;
75021;SDS011;63583;49.976;20.182;2024-03-08T00:54:35;26.10;;;13.20;;
75021;SDS011;63583;49.976;20.182;2024-03-08T00:57:03;27.65;;;14.20;;
75021;SDS011;63583;49.976;20.182;2024-03-08T00:59:30;27.05;;;11.82;;
75021;SDS011;63583;49.976;20.182;2024-03-08T01:01:58;27.42;;;14.02;;
75021;SDS011;63583;49.976;20.182;2024-03-08T01:04:25;28.10;;;13.95;;
75021;SDS011;63583;49.976;20.182;2024-03-08T01:06:54;26.63;;;12.70;;
75021;SDS011;63583;49.976;20.182;2024-03-08T01:09:22;27.20;;;12.80;;
75021;SDS011;63583;49.976;20.182;2024-03-08T01:11:52;31.10;;;13.90;;
75021;SDS011;63583;49.976;20.182;2024-03-08T01:14:21;29.10;;;14.13;;
75021;SDS011;63583;49.976;20.182;2024-03-08T01:16:48;33.95;;;13.75;;
75021;SDS011;63583;49.976;20.182;2024-03-08T01:19:14;33.15;;;14.45;;
75021;SDS011;63583;49.976;20.182;2024-03-08T01:21:41;26.83;;;13.32;;
75021;SDS011;63583;49.976;20.182;2024-03-08T01:24:07;32.10;;;13.68;;
75021;SDS011;63583;49.976;20.182;2024-03-08T01:26:33;30.38;;;13.93;;
75021;SDS011;63583;49.976;20.182;2024-03-08T01:29:02;26.80;;;13.40;;
75021;SDS011;63583;49.976;20.182;2024-03-08T01:31:31;27.83;;;13.38;;
75021;SDS011;63583;49.976;20.182;2024-03-08T01:34:00;30.85;;;15.05;;
75021;SDS011;63583;49.976;20.182;2024-03-08T01:36:26;34.45;;;15.07;;
75021;SDS011;63583;49.976;20.182;2024-03-08T01:38:52;31.90;;;15.00;;
75021;SDS011;63583;49.976;20.182;2024-03-08T01:41:18;26.60;;;12.93;;
75021;SDS011;63583;49.976;20.182;2024-03-08T01:43:45;29.25;;;13.85;;
75021;SDS011;63583;49.976;20.182;2024-03-08T01:46:11;27.77;;;13.50;;
75021;SDS011;63583;49.976;20.182;2024-03-08T01:48:40;34.38;;;14.40;;
75021;SDS011;63583;49.976;20.182;2024-03-08T01:51:07;29.63;;;14.32;;
75021;SDS011;63583;49.976;20.182;2024-03-08T01:53:33;30.02;;;14.32;;
75021;SDS011;63583;49.976;20.182;2024-03-08T01:56:00;27.35;;;13.98;;
75021;SDS011;63583;49.976;20.182;2024-03-08T01:58:28;29.50;;;14.30;;
75021;SDS011;63583;49.976;20.182;2024-03-08T02:00:56;31.05;;;15.40;;
75021;SDS011;63583;49.976;20.182;2024-03-08T02:03:22;27.85;;;14.65;;
75021;SDS011;63583;49.976;20.182;2024-03-08T02:05:48;30.10;;;13.43;;
75021;SDS011;63583;49.976;20.182;2024-03-08T02:08:15;34.78;;;15.20;;
75021;SDS011;63583;49.976;20.182;2024-03-08T02:10:41;15.65;;;7.72;;
75021;SDS011;63583;49.976;20.182;2024-03-08T02:13:11;25.65;;;13.07;;
75021;SDS011;63583;49.976;20.182;2024-03-08T02:15:53;29.77;;;13.27;;
75021;SDS011;63583;49.976;20.182;2024-03-08T02:18:26;31.35;;;13.82;;
75021;SDS011;63583;49.976;20.182;2024-03-08T02:20:57;27.15;;;14.70;;
75021;SDS011;63583;49.976;20.182;2024-03-08T02:23:28;34.40;;;16.77;;
75021;SDS011;63583;49.976;20.182;2024-03-08T02:25:54;29.90;;;13.38;;
75021;SDS011;63583;49.976;20.182;2024-03-08T02:28:21;29.45;;;14.27;;
75021;SDS011;63583;49.976;20.182;2024-03-08T02:30:48;22.60;;;11.27;;
75021;SDS011;63583;49.976;20.182;2024-03-08T02:33:16;32.13;;;14.95;;
75021;SDS011;63583;49.976;20.182;2024-03-08T02:35:46;30.73;;;13.82;;
75021;SDS011;63583;49.976;20.182;2024-03-08T02:38:13;25.95;;;13.90;;
75021;SDS011;63583;49.976;20.182;2024-03-08T02:40:44;28.40;;;14.43;;
75021;SDS011;63583;49.976;20.182;2024-03-08T02:43:11;30.27;;;14.32;;
75021;SDS011;63583;49.976;20.182;2024-03-08T02:45:37;26.90;;;11.25;;
75021;SDS011;63583;49.976;20.182;2024-03-08T02:48:04;32.85;;;15.77;;
75021;SDS011;63583;49.976;20.182;2024-03-08T02:50:32;35.90;;;14.05;;
75021;SDS011;63583;49.976;20.182;2024-03-08T02:52:58;35.92;;;16.20;;
75021;SDS011;63583;49.976;20.182;2024-03-08T02:55:24;35.85;;;14.98;;
75021;SDS011;63583;49.976;20.182;2024-03-08T02:57:51;31.23;;;14.25;;
75021;SDS011;63583;49.976;20.182;2024-03-08T03:00:20;36.58;;;16.05;;
75021;SDS011;63583;49.976;20.182;2024-03-08T03:02:47;39.17;;;17.58;;
75021;SDS011;63583;49.976;20.182;2024-03-08T03:05:12;36.35;;;17.10;;
75021;SDS011;63583;49.976;20.182;2024-03-08T03:07:39;32.15;;;14.57;;
75021;SDS011;63583;49.976;20.182;2024-03-08T03:10:05;29.85;;;13.85;;
75021;SDS011;63583;49.976;20.182;2024-03-08T03:12:32;28.63;;;14.10;;
75021;SDS011;63583;49.976;20.182;2024-03-08T03:14:59;29.20;;;13.40;;
75021;SDS011;63583;49.976;20.182;2024-03-08T03:17:25;32.38;;;14.32;;
75021;SDS011;63583;49.976;20.182;2024-03-08T03:19:52;29.13;;;14.40;;
75021;SDS011;63583;49.976;20.182;2024-03-08T03:22:18;26.67;;;13.00;;
75021;SDS011;63583;49.976;20.182;2024-03-08T03:24:44;30.17;;;14.55;;
75021;SDS011;63583;49.976;20.182;2024-03-08T03:27:14;25.27;;;13.32;;
75021;SDS011;63583;49.976;20.182;2024-03-08T03:29:40;30.73;;;15.07;;
75021;SDS011;63583;49.976;20.182;2024-03-08T03:32:11;29.35;;;14.13;;
75021;SDS011;63583;49.976;20.182;2024-03-08T03:34:37;33.30;;;14.82;;
75021;SDS011;63583;49.976;20.182;2024-03-08T03:37:04;31.77;;;13.43;;
75021;SDS011;63583;49.976;20.182;2024-03-08T03:39:30;32.28;;;15.18;;
75021;SDS011;63583;49.976;20.182;2024-03-08T03:42:17;30.23;;;14.70;;
75021;SDS011;63583;49.976;20.182;2024-03-08T03:44:46;30.08;;;16.40;;
75021;SDS011;63583;49.976;20.182;2024-03-08T03:47:13;28.80;;;14.10;;
75021;SDS011;63583;49.976;20.182;2024-03-08T03:49:40;25.98;;;12.90;;
75021;SDS011;63583;49.976;20.182;2024-03-08T03:52:07;29.27;;;14.43;;
75021;SDS011;63583;49.976;20.182;2024-03-08T03:54:32;21.10;;;10.50;;
75021;SDS011;63583;49.976;20.182;2024-03-08T03:56:59;26.48;;;12.60;;
75021;SDS011;63583;49.976;20.182;2024-03-08T03:59:26;30.83;;;14.77;;
75021;SDS011;63583;49.976;20.182;2024-03-08T04:01:53;30.17;;;14.77;;
75021;SDS011;63583;49.976;20.182;2024-03-08T04:04:20;25.38;;;12.85;;
75021;SDS011;63583;49.976;20.182;2024-03-08T04:06:46;28.75;;;13.80;;
75021;SDS011;63583;49.976;20.182;2024-03-08T04:09:13;24.40;;;11.80;;
75021;SDS011;63583;49.976;20.182;2024-03-08T04:11:39;28.83;;;13.38;;
75021;SDS011;63583;49.976;20.182;2024-03-08T04:14:05;35.30;;;14.75;;
75021;SDS011;63583;49.976;20.182;2024-03-08T04:16:31;33.78;;;15.60;;
75021;SDS011;63583;49.976;20.182;2024-03-08T04:18:57;30.10;;;11.57;;
75021;SDS011;63583;49.976;20.182;2024-03-08T04:21:24;35.92;;;15.55;;
75021;SDS011;63583;49.976;20.182;2024-03-08T04:23:49;31.58;;;15.32;;
75021;SDS011;63583;49.976;20.182;2024-03-08T04:26:15;39.40;;;17.30;;
75021;SDS011;63583;49.976;20.182;2024-03-08T04:28:41;36.53;;;17.20;;
75021;SDS011;63583;49.976;20.182;2024-03-08T04:31:07;33.53;;;15.18;;
75021;SDS011;63583;49.976;20.182;2024-03-08T04:33:33;38.35;;;18.30;;
75021;SDS011;63583;49.976;20.182;2024-03-08T04:36:01;46.50;;;18.90;;
75021;SDS011;63583;49.976;20.182;2024-03-08T04:38:29;37.60;;;16.30;;
75021;SDS011;63583;49.976;20.182;2024-03-08T04:40:56;39.67;;;17.65;;
75021;SDS011;63583;49.976;20.182;2024-03-08T04:43:23;38.80;;;16.95;;
75021;SDS011;63583;49.976;20.182;2024-03-08T04:48:18;34.90;;;15.70;;
75021;SDS011;63583;49.976;20.182;2024-03-08T04:50:46;32.92;;;16.30;;
75021;SDS011;63583;49.976;20.182;2024-03-08T04:53:11;32.38;;;15.73;;
75021;SDS011;63583;49.976;20.182;2024-03-08T04:55:37;33.10;;;15.07;;
75021;SDS011;63583;49.976;20.182;2024-03-08T04:58:03;32.20;;;14.20;;
75021;SDS011;63583;49.976;20.182;2024-03-08T05:00:31;32.20;;;16.00;;
75021;SDS011;63583;49.976;20.182;2024-03-08T05:02:58;34.33;;;15.02;;
75021;SDS011;63583;49.976;20.182;2024-03-08T05:05:24;35.67;;;16.40;;
75021;SDS011;63583;49.976;20.182;2024-03-08T05:07:51;39.25;;;18.00;;
75021;SDS011;63583;49.976;20.182;2024-03-08T05:10:17;23.13;;;11.73;;
75021;SDS011;63583;49.976;20.182;2024-03-08T05:12:44;34.55;;;15.93;;
75021;SDS011;63583;49.976;20.182;2024-03-08T05:15:10;42.60;;;17.65;;
75021;SDS011;63583;49.976;20.182;2024-03-08T05:17:35;36.30;;;16.83;;
75021;SDS011;63583;49.976;20.182;2024-03-08T05:20:02;40.13;;;17.48;;
75021;SDS011;63583;49.976;20.182;2024-03-08T05:22:29;30.75;;;14.60;;
75021;SDS011;63583;49.976;20.182;2024-03-08T05:24:55;38.47;;;16.88;;
75021;SDS011;63583;49.976;20.182;2024-03-08T05:27:20;57.15;;;23.42;;
75021;SDS011;63583;49.976;20.182;2024-03-08T05:29:46;41.72;;;19.33;;
75021;SDS011;63583;49.976;20.182;2024-03-08T05:32:13;43.83;;;18.77;;
75021;SDS011;63583;49.976;20.182;2024-03-08T05:34:39;44.05;;;18.15;;
75021;SDS011;63583;49.976;20.182;2024-03-08T05:37:05;43.03;;;19.50;;
75021;SDS011;63583;49.976;20.182;2024-03-08T05:39:32;38.72;;;17.23;;
75021;SDS011;63583;49.976;20.182;2024-03-08T05:41:58;44.65;;;20.15;;
75021;SDS011;63583;49.976;20.182;2024-03-08T05:44:24;44.45;;;18.17;;
75021;SDS011;63583;49.976;20.182;2024-03-08T05:46:49;41.03;;;18.30;;
75021;SDS011;63583;49.976;20.182;2024-03-08T05:49:16;39.67;;;17.90;;
75021;SDS011;63583;49.976;20.182;2024-03-08T05:51:41;36.13;;;14.73;;
75021;SDS011;63583;49.976;20.182;2024-03-08T05:54:09;45.40;;;18.42;;
75021;SDS011;63583;49.976;20.182;2024-03-08T05:56:36;41.17;;;19.17;;
75021;SDS011;63583;49.976;20.182;2024-03-08T05:59:03;39.53;;;17.50;;
75021;SDS011;63583;49.976;20.182;2024-03-08T06:01:29;37.53;;;17.58;;
75021;SDS011;63583;49.976;20.182;2024-03-08T06:03:56;29.77;;;14.00;;
75021;SDS011;63583;49.976;20.182;2024-03-08T06:06:22;33.55;;;14.30;;
75021;SDS011;63583;49.976;20.182;2024-03-08T06:08:49;28.08;;;13.65;;
75021;SDS011;63583;49.976;20.182;2024-03-08T06:11:15;33.50;;;15.48;;
75021;SDS011;63583;49.976;20.182;2024-03-08T06:13:45;27.73;;;12.38;;
75021;SDS011;63583;49.976;20.182;2024-03-08T06:16:11;31.83;;;15.90;;
75021;SDS011;63583;49.976;20.182;2024-03-08T06:18:38;33.20;;;16.60;;
75021;SDS011;63583;49.976;20.182;2024-03-08T06:21:04;25.10;;;12.60;;
75021;SDS011;63583;49.976;20.182;2024-03-08T06:23:37;35.30;;;15.30;;
75021;SDS011;63583;49.976;20.182;2024-03-08T06:26:04;33.70;;;15.50;;
75021;SDS011;63583;49.976;20.182;2024-03-08T06:28:30;27.30;;;13.57;;
75021;SDS011;63583;49.976;20.182;2024-03-08T06:30:58;26.92;;;13.95;;
75021;SDS011;63583;49.976;20.182;2024-03-08T06:33:24;30.20;;;13.73;;
75021;SDS011;63583;49.976;20.182;2024-03-08T06:35:53;30.85;;;15.05;;
75021;SDS011;63583;49.976;20.182;2024-03-08T06:38:25;32.13;;;14.95;;
75021;SDS011;63583;49.976;20.182;2024-03-08T06:40:52;31.15;;;13.80;;
75021;SDS011;63583;49.976;20.182;2024-03-08T06:43:18;34.95;;;15.18;;
75021;SDS011;63583;49.976;20.182;2024-03-08T06:45:47;32.80;;;15.18;;
75021;SDS011;63583;49.976;20.182;2024-03-08T06:48:16;30.27;;;15.00;;
75021;SDS011;63583;49.976;20.182;2024-03-08T06:50:43;36.80;;;15.98;;
75021;SDS011;63583;49.976;20.182;2024-03-08T06:53:10;30.35;;;13.40;;
75021;SDS011;63583;49.976;20.182;2024-03-08T06:55:37;34.58;;;16.63;;
75021;SDS011;63583;49.976;20.182;2024-03-08T06:58:04;30.33;;;14.75;;
75021;SDS011;63583;49.976;20.182;2024-03-08T07:00:29;33.65;;;15.50;;
75021;SDS011;63583;49.976;20.182;2024-03-08T07:02:56;26.38;;;11.43;;
75021;SDS011;63583;49.976;20.182;2024-03-08T07:05:29;32.28;;;14.93;;
75021;SDS011;63583;49.976;20.182;2024-03-08T07:07:57;31.30;;;14.32;;
75021;SDS011;63583;49.976;20.182;2024-03-08T07:10:23;25.65;;;12.80;;
75021;SDS011;63583;49.976;20.182;2024-03-08T07:12:54;23.58;;;12.45;;
75021;SDS011;63583;49.976;20.182;2024-03-08T07:15:19;28.98;;;14.73;;
75021;SDS011;63583;49.976;20.182;2024-03-08T07:17:46;30.95;;;13.93;;
75021;SDS011;63583;49.976;20.182;2024-03-08T07:20:15;27.63;;;13.10;;
75021;SDS011;63583;49.976;20.182;2024-03-08T07:22:47;28.27;;;12.30;;
75021;SDS011;63583;49.976;20.182;2024-03-08T07:25:13;29.90;;;14.38;;
75021;SDS011;63583;49.976;20.182;2024-03-08T07:27:55;26.58;;;13.60;;
75021;SDS011;63583;49.976;20.182;2024-03-08T07:30:22;25.38;;;12.07;;
75021;SDS011;63583;49.976;20.182;2024-03-08T07:33:07;28.90;;;14.48;;
75021;SDS011;63583;49.976;20.182;2024-03-08T07:35:33;29.05;;;12.65;;
75021;SDS011;63583;49.976;20.182;2024-03-08T07:40:29;35.20;;;15.68;;
75021;SDS011;63583;49.976;20.182;2024-03-08T07:42:55;31.00;;;14.23;;
75021;SDS011;63583;49.976;20.182;2024-03-08T07:45:21;30.58;;;13.13;;
75021;SDS011;63583;49.976;20.182;2024-03-08T07:47:47;28.77;;;13.35;;
75021;SDS011;63583;49.976;20.182;2024-03-08T07:50:13;28.65;;;13.10;;
75021;SDS011;63583;49.976;20.182;2024-03-08T07:52:42;33.33;;;16.20;;
75021;SDS011;63583;49.976;20.182;2024-03-08T07:55:08;32.17;;;14.52;;
75021;SDS011;63583;49.976;20.182;2024-03-08T07:57:35;31.73;;;15.15;;
75021;SDS011;63583;49.976;20.182;2024-03-08T08:00:04;27.65;;;14.48;;
75021;SDS011;63583;49.976;20.182;2024-03-08T08:02:33;30.92;;;14.93;;
75021;SDS011;63583;49.976;20.182;2024-03-08T08:05:00;30.17;;;14.23;;
75021;SDS011;63583;49.976;20.182;2024-03-08T08:07:27;35.25;;;15.85;;
75021;SDS011;63583;49.976;20.182;2024-03-08T08:09:53;31.85;;;14.00;;
75021;SDS011;63583;49.976;20.182;2024-03-08T08:12:19;31.60;;;14.75;;
75021;SDS011;63583;49.976;20.182;2024-03-08T08:14:46;32.33;;;14.50;;
75021;SDS011;63583;49.976;20.182;2024-03-08T08:17:12;31.02;;;14.40;;
75021;SDS011;63583;49.976;20.182;2024-03-08T08:19:40;32.50;;;14.30;;
75021;SDS011;63583;49.976;20.182;2024-03-08T08:22:06;32.72;;;14.23;;
75021;SDS011;63583;49.976;20.182;2024-03-08T08:24:34;19.80;;;10.15;;
75021;SDS011;63583;49.976;20.182;2024-03-08T08:27:02;30.35;;;14.02;;
75021;SDS011;63583;49.976;20.182;2024-03-08T08:29:29;31.02;;;14.60;;
75021;SDS011;63583;49.976;20.182;2024-03-08T08:31:58;25.17;;;13.35;;
75021;SDS011;63583;49.976;20.182;2024-03-08T08:34:24;32.28;;;13.95;;
75021;SDS011;63583;49.976;20.182;2024-03-08T08:36:52;31.35;;;16.13;;
75021;SDS011;63583;49.976;20.182;2024-03-08T08:39:18;35.97;;;16.15;;
75021;SDS011;63583;49.976;20.182;2024-03-08T08:41:44;31.05;;;14.98;;
75021;SDS011;63583;49.976;20.182;2024-03-08T08:44:10;31.70;;;14.23;;
75021;SDS011;63583;49.976;20.182;2024-03-08T08:46:38;28.02;;;13.98;;
75021;SDS011;63583;49.976;20.182;2024-03-08T08:49:04;24.77;;;12.60;;
75021;SDS011;63583;49.976;20.182;2024-03-08T08:51:32;29.08;;;14.07;;
75021;SDS011;63583;49.976;20.182;2024-03-08T08:54:00;29.05;;;13.73;;
75021;SDS011;63583;49.976;20.182;2024-03-08T08:56:26;34.17;;;13.50;;
75021;SDS011;63583;49.976;20.182;2024-03-08T08:58:53;30.30;;;14.77;;
75021;SDS011;63583;49.976;20.182;2024-03-08T09:01:20;26.52;;;12.80;;
75021;SDS011;63583;49.976;20.182;2024-03-08T09:03:45;26.08;;;12.32;;
75021;SDS011;63583;49.976;20.182;2024-03-08T09:06:15;26.70;;;12.85;;
75021;SDS011;63583;49.976;20.182;2024-03-08T09:08:42;31.30;;;13.77;;
75021;SDS011;63583;49.976;20.182;2024-03-08T09:11:09;26.80;;;11.82;;
75021;SDS011;63583;49.976;20.182;2024-03-08T09:13:35;28.70;;;13.77;;
75021;SDS011;63583;49.976;20.182;2024-03-08T09:16:02;28.20;;;12.73;;
75021;SDS011;63583;49.976;20.182;2024-03-08T09:18:30;27.55;;;14.20;;
75021;SDS011;63583;49.976;20.182;2024-03-08T09:21:00;28.60;;;14.10;;
75021;SDS011;63583;49.976;20.182;2024-03-08T09:23:26;30.10;;;14.60;;
75021;SDS011;63583;49.976;20.182;2024-03-08T09:25:58;26.85;;;13.27;;
75021;SDS011;63583;49.976;20.182;2024-03-08T09:28:24;30.02;;;14.32;;
75021;SDS011;63583;49.976;20.182;2024-03-08T09:30:50;24.67;;;11.68;;
75021;SDS011;63583;49.976;20.182;2024-03-08T09:33:16;27.48;;;13.52;;
75021;SDS011;63583;49.976;20.182;2024-03-08T09:35:45;28.13;;;13.32;;
75021;SDS011;63583;49.976;20.182;2024-03-08T09:38:17;29.58;;;14.65;;
75021;SDS011;63583;49.976;20.182;2024-03-08T09:40:46;29.63;;;14.23;;
75021;SDS011;63583;49.976;20.182;2024-03-08T09:43:13;26.63;;;12.50;;
75021;SDS011;63583;49.976;20.182;2024-03-08T09:45:39;28.58;;;12.55;;
75021;SDS011;63583;49.976;20.182;2024-03-08T09:48:09;27.38;;;14.35;;
75021;SDS011;63583;49.976;20.182;2024-03-08T09:50:40;28.30;;;13.38;;
75021;SDS011;63583;49.976;20.182;2024-03-08T09:53:06;30.85;;;14.50;;
75021;SDS011;63583;49.976;20.182;2024-03-08T09:55:37;31.83;;;14.70;;
75021;SDS011;63583;49.976;20.182;2024-03-08T09:58:06;28.67;;;13.13;;
75021;SDS011;63583;49.976;20.182;2024-03-08T10:00:56;27.17;;;12.43;;
75021;SDS011;63583;49.976;20.182;2024-03-08T10:03:23;28.38;;;12.40;;
75021;SDS011;63583;49.976;20.182;2024-03-08T10:05:51;25.75;;;13.43;;
75021;SDS011;63583;49.976;20.182;2024-03-08T10:08:17;26.88;;;13.63;;
75021;SDS011;63583;49.976;20.182;2024-03-08T10:10:43;21.30;;;10.40;;
75021;SDS011;63583;49.976;20.182;2024-03-08T10:13:09;23.15;;;11.43;;
75021;SDS011;63583;49.976;20.182;2024-03-08T10:15:39;25.70;;;11.65;;
75021;SDS011;63583;49.976;20.182;2024-03-08T10:18:05;25.23;;;12.15;;
75021;SDS011;63583;49.976;20.182;2024-03-08T10:20:32;25.85;;;12.50;;
75021;SDS011;63583;49.976;20.182;2024-03-08T10:22:59;22.67;;;12.35;;
75021;SDS011;63583;49.976;20.182;2024-03-08T10:25:32;25.20;;;11.23;;
75021;SDS011;63583;49.976;20.182;2024-03-08T10:27:58;26.20;;;13.00;;
75021;SDS011;63583;49.976;20.182;2024-03-08T10:30:24;26.45;;;12.77;;
75021;SDS011;63583;49.976;20.182;2024-03-08T10:32:49;27.60;;;12.68;;
75021;SDS011;63583;49.976;20.182;2024-03-08T10:35:17;20.88;;;10.10;;
75021;SDS011;63583;49.976;20.182;2024-03-08T10:37:49;26.48;;;12.98;;
75021;SDS011;63583;49.976;20.182;2024-03-08T10:40:26;24.55;;;12.45;;
75021;SDS011;63583;49.976;20.182;2024-03-08T10:42:54;28.05;;;13.82;;
75021;SDS011;63583;49.976;20.182;2024-03-08T10:45:31;24.55;;;14.27;;
75021;SDS011;63583;49.976;20.182;2024-03-08T10:50:38;25.42;;;13.68;;
75021;SDS011;63583;49.976;20.182;2024-03-08T10:53:05;25.58;;;13.15;;
75021;SDS011;63583;49.976;20.182;2024-03-08T10:55:32;27.08;;;12.98;;
75021;SDS011;63583;49.976;20.182;2024-03-08T10:57:59;22.75;;;12.00;;
75021;SDS011;63583;49.976;20.182;2024-03-08T11:00:26;24.00;;;12.48;;
75021;SDS011;63583;49.976;20.182;2024-03-08T11:02:53;25.15;;;12.20;;
75021;SDS011;63583;49.976;20.182;2024-03-08T11:05:32;24.80;;;12.70;;
75021;SDS011;63583;49.976;20.182;2024-03-08T11:08:24;24.33;;;12.18;;
75021;SDS011;63583;49.976;20.182;2024-03-08T11:10:53;25.13;;;12.32;;
75021;SDS011;63583;49.976;20.182;2024-03-08T11:13:39;24.63;;;12.63;;
75021;SDS011;63583;49.976;20.182;2024-03-08T11:16:07;26.88;;;12.80;;
75021;SDS011;63583;49.976;20.182;2024-03-08T11:18:35;28.92;;;13.15;;
75021;SDS011;63583;49.976;20.182;2024-03-08T11:21:07;27.05;;;13.52;;
75021;SDS011;63583;49.976;20.182;2024-03-08T11:23:37;27.17;;;12.55;;
75021;SDS011;63583;49.976;20.182;2024-03-08T11:26:22;25.60;;;12.23;;
75021;SDS011;63583;49.976;20.182;2024-03-08T11:28:49;24.45;;;11.80;;
75021;SDS011;63583;49.976;20.182;2024-03-08T11:31:22;22.30;;;12.25;;
75021;SDS011;63583;49.976;20.182;2024-03-08T11:33:48;25.23;;;12.80;;
75021;SDS011;63583;49.976;20.182;2024-03-08T11:36:24;27.38;;;13.05;;
75021;SDS011;63583;49.976;20.182;2024-03-08T11:41:23;24.23;;;10.50;;
75021;SDS011;63583;49.976;20.182;2024-03-08T11:43:52;23.88;;;10.93;;
75021;SDS011;63583;49.976;20.182;2024-03-08T11:46:30;28.05;;;14.20;;
75021;SDS011;63583;49.976;20.182;2024-03-08T11:48:56;24.63;;;11.52;;
75021;SDS011;63583;49.976;20.182;2024-03-08T11:51:22;25.17;;;12.80;;
75021;SDS011;63583;49.976;20.182;2024-03-08T11:53:51;23.27;;;11.55;;
75021;SDS011;63583;49.976;20.182;2024-03-08T11:56:18;27.67;;;12.50;;
75021;SDS011;63583;49.976;20.182;2024-03-08T11:58:55;23.83;;;11.00;;
75021;SDS011;63583;49.976;20.182;2024-03-08T12:01:22;23.40;;;12.50;;
75021;SDS011;63583;49.976;20.182;2024-03-08T12:03:52;26.63;;;12.75;;
75021;SDS011;63583;49.976;20.182;2024-03-08T12:06:20;21.65;;;12.13;;
75021;SDS011;63583;49.976;20.182;2024-03-08T12:08:46;23.52;;;12.40;;
75021;SDS011;63583;49.976;20.182;2024-03-08T12:11:22;25.15;;;13.02;;
75021;SDS011;63583;49.976;20.182;2024-03-08T12:13:50;24.02;;;12.43;;
75021;SDS011;63583;49.976;20.182;2024-03-08T12:16:17;23.90;;;12.05;;
75021;SDS011;63583;49.976;20.182;2024-03-08T12:18:43;25.00;;;12.52;;
75021;SDS011;63583;49.976;20.182;2024-03-08T12:21:11;27.00;;;13.00;;
75021;SDS011;63583;49.976;20.182;2024-03-08T12:23:39;25.75;;;12.88;;
75021;SDS011;63583;49.976;20.182;2024-03-08T12:26:14;22.25;;;11.73;;
75021;SDS011;63583;49.976;20.182;2024-03-08T12:28:41;25.10;;;12.68;;
75021;SDS011;63583;49.976;20.182;2024-03-08T12:31:11;22.02;;;11.65;;
75021;SDS011;63583;49.976;20.182;2024-03-08T12:33:47;23.48;;;12.05;;
75021;SDS011;63583;49.976;20.182;2024-03-08T12:36:14;26.33;;;12.48;;
75021;SDS011;63583;49.976;20.182;2024-03-08T12:38:43;24.50;;;12.55;;
75021;SDS011;63583;49.976;20.182;2024-03-08T12:41:15;26.42;;;13.30;;
75021;SDS011;63583;49.976;20.182;2024-03-08T12:43:43;25.65;;;12.88;;
75021;SDS011;63583;49.976;20.182;2024-03-08T12:46:14;23.10;;;12.38;;
75021;SDS011;63583;49.976;20.182;2024-03-08T12:48:46;25.58;;;12.15;;
75021;SDS011;63583;49.976;20.182;2024-03-08T12:51:13;25.75;;;12.88;;
75021;SDS011;63583;49.976;20.182;2024-03-08T12:53:41;26.45;;;13.30;;
75021;SDS011;63583;49.976;20.182;2024-03-08T12:56:10;25.80;;;12.40;;
75021;SDS011;63583;49.976;20.182;2024-03-08T12:58:36;24.20;;;11.88;;
75021;SDS011;63583;49.976;20.182;2024-03-08T13:01:02;27.05;;;13.35;;
75021;SDS011;63583;49.976;20.182;2024-03-08T13:03:33;28.02;;;12.93;;
75021;SDS011;63583;49.976;20.182;2024-03-08T13:06:04;31.10;;;14.98;;
75021;SDS011;63583;49.976;20.182;2024-03-08T13:08:39;29.00;;;13.93;;
75021;SDS011;63583;49.976;20.182;2024-03-08T13:11:06;23.48;;;12.35;;
75021;SDS011;63583;49.976;20.182;2024-03-08T13:13:40;24.02;;;12.93;;
75021;SDS011;63583;49.976;20.182;2024-03-08T13:16:06;23.63;;;12.55;;
75021;SDS011;63583;49.976;20.182;2024-03-08T13:18:36;26.95;;;13.52;;
75021;SDS011;63583;49.976;20.182;2024-03-08T13:21:05;24.02;;;13.02;;
75021;SDS011;63583;49.976;20.182;2024-03-08T13:23:35;25.75;;;12.68;;
75021;SDS011;63583;49.976;20.182;2024-03-08T13:26:08;24.77;;;12.85;;
75021;SDS011;63583;49.976;20.182;2024-03-08T13:28:37;22.77;;;12.27;;
75021;SDS011;63583;49.976;20.182;2024-03-08T13:31:04;24.35;;;12.95;;
75021;SDS011;63583;49.976;20.182;2024-03-08T13:33:32;25.60;;;12.55;;
75021;SDS011;63583;49.976;20.182;2024-03-08T13:38:27;23.38;;;11.45;;
75021;SDS011;63583;49.976;20.182;2024-03-08T13:40:53;26.95;;;13.55;;
75021;SDS011;63583;49.976;20.182;2024-03-08T13:43:19;26.98;;;13.48;;
75021;SDS011;63583;49.976;20.182;2024-03-08T13:45:44;26.05;;;12.38;;
75021;SDS011;63583;49.976;20.182;2024-03-08T13:48:11;23.80;;;11.73;;
75021;SDS011;63583;49.976;20.182;2024-03-08T13:50:38;22.75;;;12.05;;
75021;SDS011;63583;49.976;20.182;2024-03-08T13:53:05;22.10;;;11.95;;
75021;SDS011;63583;49.976;20.182;2024-03-08T13:55:31;22.35;;;12.40;;
75021;SDS011;63583;49.976;20.182;2024-03-08T13:57:56;22.13;;;11.95;;
75021;SDS011;63583;49.976;20.182;2024-03-08T14:00:23;25.33;;;12.68;;
75021;SDS011;63583;49.976;20.182;2024-03-08T14:02:51;25.15;;;12.27;;
75021;SDS011;63583;49.976;20.182;2024-03-08T14:05:17;23.58;;;12.27;;
75021;SDS011;63583;49.976;20.182;2024-03-08T14:07:45;24.95;;;12.50;;
75021;SDS011;63583;49.976;20.182;2024-03-08T14:10:14;25.40;;;12.85;;
75021;SDS011;63583;49.976;20.182;2024-03-08T14:12:40;24.67;;;12.65;;
75021;SDS011;63583;49.976;20.182;2024-03-08T14:15:08;27.75;;;12.70;;
75021;SDS011;63583;49.976;20.182;2024-03-08T14:17:35;23.73;;;12.98;;
75021;SDS011;63583;49.976;20.182;2024-03-08T14:20:01;24.38;;;13.20;;
75021;SDS011;63583;49.976;20.182;2024-03-08T14:22:27;25.88;;;12.73;;
75021;SDS011;63583;49.976;20.182;2024-03-08T14:24:53;27.20;;;13.57;;
75021;SDS011;63583;49.976;20.182;2024-03-08T14:27:21;25.75;;;12.77;;